createdAt,value
2018-12-13T00:02:35.668Z,8.48
2018-12-13T00:05:39.008Z,8.67
2018-12-13T00:08:42.318Z,11.23
2018-12-13T00:11:45.724Z,11.88
2018-12-13T00:14:49.131Z,10.33
2018-12-13T00:17:52.437Z,12.90
2018-12-13T00:20:55.752Z,11.00
2018-12-13T00:23:59.120Z,13.40
2018-12-13T00:27:02.527Z,11.37
2018-12-13T00:30:06.129Z,12.03
2018-12-13T00:33:09.524Z,16.10
2018-12-13T00:36:12.927Z,11.87
2018-12-13T00:39:16.316Z,13.83
2018-12-13T00:42:19.694Z,13.62
2018-12-13T00:45:23.014Z,12.10
2018-12-13T00:48:26.317Z,13.13
2018-12-13T00:51:29.737Z,15.43
2018-12-13T00:54:33.113Z,13.47
2018-12-13T00:57:36.422Z,12.33
2018-12-13T01:00:39.825Z,14.07
2018-12-13T01:03:43.157Z,13.00
2018-12-13T01:06:46.509Z,14.53
2018-12-13T01:09:49.913Z,14.90
2018-12-13T01:12:53.226Z,16.17
2018-12-13T01:15:56.621Z,12.70
2018-12-13T01:18:59.904Z,13.37
2018-12-13T01:22:03.209Z,13.87
2018-12-13T01:25:06.659Z,14.33
2018-12-13T01:28:10.057Z,13.97
2018-12-13T01:31:13.433Z,12.27
2018-12-13T01:34:16.797Z,13.80
2018-12-13T01:37:20.110Z,11.57
2018-12-13T01:40:23.420Z,13.47
2018-12-13T01:43:26.846Z,15.50
2018-12-13T01:46:30.177Z,11.13
2018-12-13T01:49:33.493Z,12.47
2018-12-13T01:52:36.853Z,10.17
2018-12-13T01:55:40.302Z,9.60
2018-12-13T01:58:43.705Z,10.03
2018-12-13T02:05:03.996Z,7.40
2018-12-13T02:08:07.380Z,4.70
2018-12-13T02:11:10.880Z,6.37
2018-12-13T02:14:14.193Z,5.63
2018-12-13T02:17:17.534Z,5.37
2018-12-13T02:20:20.872Z,5.20
2018-12-13T02:23:24.198Z,5.57
2018-12-13T02:26:27.652Z,3.77
2018-12-13T02:29:31.109Z,4.63
2018-12-13T02:32:34.513Z,5.63
2018-12-13T02:35:38.135Z,6.07
2018-12-13T02:38:41.602Z,4.20
2018-12-13T02:41:44.959Z,4.10
2018-12-13T02:44:48.289Z,4.47
2018-12-13T02:47:51.653Z,4.70
2018-12-13T02:50:54.966Z,5.77
2018-12-13T02:53:58.316Z,4.50
2018-12-13T02:57:01.679Z,5.03
2018-12-13T03:00:06.499Z,5.60
2018-12-13T03:03:09.904Z,5.43
2018-12-13T03:06:13.241Z,4.97
2018-12-13T03:09:16.608Z,6.33
2018-12-13T03:12:19.947Z,7.33
2018-12-13T03:15:23.256Z,7.37
2018-12-13T03:18:26.576Z,8.50
2018-12-13T03:21:29.982Z,7.10
2018-12-13T03:24:33.397Z,7.63
2018-12-13T03:27:36.824Z,7.23
2018-12-13T03:30:40.224Z,8.00
2018-12-13T03:33:43.639Z,8.33
2018-12-13T03:36:46.953Z,7.40
2018-12-13T03:39:50.270Z,9.27
2018-12-13T03:42:53.853Z,7.70
2018-12-13T03:45:57.151Z,9.37
2018-12-13T03:49:00.463Z,9.63
2018-12-13T03:52:03.878Z,8.47
2018-12-13T03:55:07.324Z,10.40
2018-12-13T03:58:10.666Z,9.90
2018-12-13T04:01:13.977Z,12.77
2018-12-13T04:04:17.302Z,11.03
2018-12-13T04:07:27.621Z,10.80
2018-12-13T04:10:26.101Z,11.33
2018-12-13T04:13:29.414Z,10.00
2018-12-13T04:16:32.776Z,9.30
2018-12-13T04:19:36.141Z,13.40
2018-12-13T04:22:39.538Z,11.13
2018-12-13T04:25:43.006Z,9.23
2018-12-13T04:28:46.328Z,10.03
2018-12-13T04:31:50.713Z,12.68
2018-12-13T04:34:54.320Z,12.60
2018-12-13T04:37:57.653Z,12.03
2018-12-13T04:41:00.990Z,12.30
2018-12-13T04:44:04.410Z,13.97
2018-12-13T04:47:07.962Z,11.27
2018-12-13T04:53:28.085Z,15.00
2018-12-13T04:56:31.425Z,11.43
2018-12-13T04:59:34.801Z,12.03
2018-12-13T05:02:38.138Z,13.50
2018-12-13T05:05:41.864Z,12.20
2018-12-13T05:08:45.329Z,14.37
2018-12-13T05:11:48.791Z,13.70
2018-12-13T05:14:52.308Z,12.17
2018-12-13T05:17:55.869Z,15.63
2018-12-13T05:20:59.199Z,15.57
2018-12-13T05:24:02.557Z,13.33
2018-12-13T05:27:05.889Z,12.87
2018-12-13T05:30:09.322Z,14.43
2018-12-13T05:33:12.949Z,15.05
2018-12-13T05:36:16.638Z,15.03
2018-12-13T05:39:20.069Z,15.33
2018-12-13T05:42:23.504Z,17.07
2018-12-13T05:45:26.808Z,15.47
2018-12-13T05:48:30.131Z,15.03
2018-12-13T05:51:33.489Z,15.67
2018-12-13T05:54:36.833Z,17.00
2018-12-13T05:57:40.146Z,18.33
2018-12-13T06:00:43.504Z,16.67
2018-12-13T06:03:46.880Z,17.20
2018-12-13T06:06:50.280Z,18.83
2018-12-13T06:09:53.619Z,19.47
2018-12-13T06:12:56.920Z,16.57
2018-12-13T06:16:00.317Z,21.07
2018-12-13T06:19:03.780Z,17.07
2018-12-13T06:22:07.250Z,17.57
2018-12-13T06:25:10.659Z,17.67
2018-12-13T06:28:14.029Z,19.73
2018-12-13T06:31:17.783Z,20.73
2018-12-13T06:34:21.119Z,19.80
2018-12-13T06:37:24.535Z,21.73
2018-12-13T06:40:27.916Z,21.57
2018-12-13T06:43:31.233Z,21.20
2018-12-13T06:46:34.594Z,20.40
2018-12-13T06:49:37.930Z,19.03
2018-12-13T06:52:41.574Z,21.77
2018-12-13T06:55:45.037Z,22.03
2018-12-13T06:58:48.349Z,17.93
2018-12-13T07:01:51.704Z,17.82
2018-12-13T07:04:55.888Z,21.03
2018-12-13T07:07:59.286Z,17.00
2018-12-13T07:11:02.621Z,19.93
2018-12-13T07:14:06.476Z,17.40
2018-12-13T07:17:09.970Z,22.30
2018-12-13T07:20:13.283Z,19.27
2018-12-13T07:23:17.506Z,18.48
2018-12-13T07:26:20.910Z,16.80
2018-12-13T07:29:24.258Z,22.30
2018-12-13T07:32:27.890Z,17.92
2018-12-13T07:35:31.224Z,17.50
2018-12-13T07:38:35.452Z,18.13
2018-12-13T07:41:39.294Z,14.68
2018-12-13T07:44:42.649Z,15.53
2018-12-13T07:47:46.744Z,16.20
2018-12-13T07:50:52.404Z,16.23
2018-12-13T07:53:55.772Z,15.65
2018-12-13T07:56:59.145Z,13.97
2018-12-13T08:00:02.466Z,13.07
2018-12-13T08:03:05.865Z,18.80
2018-12-13T08:06:09.196Z,14.43
2018-12-13T08:09:12.542Z,16.57
2018-12-13T08:12:15.859Z,14.93
2018-12-13T08:15:19.843Z,16.80
2018-12-13T08:18:23.306Z,13.87
2018-12-13T08:21:26.663Z,15.43
2018-12-13T08:24:29.973Z,15.93
2018-12-13T08:27:33.329Z,16.80
2018-12-13T08:30:36.970Z,13.77
2018-12-13T08:33:40.374Z,16.23
2018-12-13T08:36:43.825Z,16.80
2018-12-13T08:39:47.184Z,18.63
2018-12-13T08:42:50.497Z,17.37
2018-12-13T08:45:53.946Z,17.53
2018-12-13T08:48:57.325Z,15.40
2018-12-13T08:52:00.673Z,14.10
2018-12-13T08:55:04.912Z,17.83
2018-12-13T08:58:08.389Z,18.13
2018-12-13T09:01:11.851Z,15.77
2018-12-13T09:04:15.292Z,16.60
2018-12-13T09:07:18.750Z,12.90
2018-12-13T09:10:22.161Z,14.37
2018-12-13T09:13:25.486Z,21.47
2018-12-13T09:16:31.687Z,17.70
2018-12-13T09:19:34.124Z,15.07
2018-12-13T09:22:37.465Z,16.27
2018-12-13T09:25:41.043Z,15.87
2018-12-13T09:28:44.333Z,20.17
2018-12-13T09:31:47.735Z,15.68
2018-12-13T09:34:51.166Z,16.17
2018-12-13T09:37:54.455Z,16.83
2018-12-13T09:44:14.546Z,19.27
2018-12-13T09:47:17.889Z,17.92
2018-12-13T09:50:21.254Z,17.33
2018-12-13T09:53:24.580Z,16.73
2018-12-13T09:56:27.925Z,16.90
2018-12-13T09:59:31.280Z,15.47
2018-12-13T10:02:34.688Z,16.67
2018-12-13T10:05:38.029Z,16.47
2018-12-13T10:08:46.290Z,16.97
2018-12-13T10:11:46.882Z,17.67
2018-12-13T10:14:50.284Z,17.07
2018-12-13T10:17:53.657Z,16.47
2018-12-13T10:20:57.069Z,20.70
2018-12-13T10:24:00.425Z,16.43
2018-12-13T10:27:03.868Z,16.00
2018-12-13T10:30:07.443Z,17.53
2018-12-13T10:33:10.821Z,15.18
2018-12-13T10:36:14.200Z,16.30
2018-12-13T10:39:17.569Z,14.87
2018-12-13T10:42:20.914Z,17.40
2018-12-13T10:45:24.279Z,15.63
2018-12-13T10:48:27.601Z,13.67
2018-12-13T10:51:31.063Z,14.83
2018-12-13T10:54:34.375Z,15.93
2018-12-13T10:57:37.714Z,15.08
2018-12-13T11:00:47.010Z,12.97
2018-12-13T11:03:50.435Z,14.90
2018-12-13T11:06:53.730Z,15.07
2018-12-13T11:09:57.179Z,15.33
2018-12-13T11:13:00.616Z,14.70
2018-12-13T11:16:04.093Z,11.70
2018-12-13T11:22:44.466Z,11.93
2018-12-13T11:25:47.777Z,13.70
2018-12-13T11:29:09.080Z,12.13
2018-12-13T11:32:12.470Z,10.83
2018-12-13T11:35:15.853Z,14.53
2018-12-13T11:38:19.165Z,10.17
2018-12-13T11:41:22.552Z,12.10
2018-12-13T11:44:26.000Z,10.47
2018-12-13T11:47:29.330Z,13.93
2018-12-13T11:50:32.681Z,12.37
2018-12-13T11:53:36.302Z,12.57
2018-12-13T11:56:39.879Z,10.15
2018-12-13T11:59:43.306Z,11.37
2018-12-13T12:02:46.616Z,9.20
2018-12-13T12:05:49.938Z,9.33
2018-12-13T12:08:53.245Z,11.73
2018-12-13T12:11:56.806Z,9.20
2018-12-13T12:15:00.272Z,9.60
2018-12-13T12:18:03.603Z,7.97
2018-12-13T12:21:06.913Z,9.90
2018-12-13T12:24:10.238Z,9.70
2018-12-13T12:27:13.571Z,11.60
2018-12-13T12:30:17.252Z,11.00
2018-12-13T12:33:20.658Z,11.67
2018-12-13T12:36:23.969Z,11.83
2018-12-13T12:39:27.357Z,9.45
2018-12-13T12:42:30.710Z,11.22
2018-12-13T12:45:34.046Z,11.23
2018-12-13T12:48:37.424Z,13.67
2018-12-13T12:51:40.775Z,8.03
2018-12-13T12:54:44.171Z,12.03
2018-12-13T12:57:47.483Z,12.57
2018-12-13T13:00:51.678Z,10.37
2018-12-13T13:03:54.983Z,10.80
2018-12-13T13:06:58.326Z,11.60
2018-12-13T13:10:01.629Z,9.97
2018-12-13T13:13:04.970Z,12.83
2018-12-13T13:16:08.326Z,10.73
2018-12-13T13:19:12.961Z,8.93
2018-12-13T13:22:19.048Z,8.67
2018-12-13T13:25:22.410Z,9.63
2018-12-13T13:28:26.945Z,8.53
2018-12-13T13:31:30.449Z,8.77
2018-12-13T13:34:33.841Z,9.97
2018-12-13T13:37:37.146Z,8.77
2018-12-13T13:40:40.536Z,11.63
2018-12-13T13:43:43.893Z,9.07
2018-12-13T13:46:47.221Z,13.57
2018-12-13T13:49:50.546Z,12.30
2018-12-13T13:52:53.877Z,12.53
2018-12-13T13:55:57.206Z,13.07
2018-12-13T13:59:00.613Z,12.27
2018-12-13T14:02:04.263Z,12.20
2018-12-13T14:05:07.717Z,12.13
2018-12-13T14:11:25.273Z,10.83
2018-12-13T14:14:29.598Z,11.70
2018-12-13T14:17:32.990Z,12.63
2018-12-13T14:20:36.418Z,11.50
2018-12-13T14:23:39.819Z,10.65
2018-12-13T14:26:43.197Z,13.10
2018-12-13T14:29:46.561Z,11.97
2018-12-13T14:32:49.921Z,11.23
2018-12-13T14:35:53.334Z,14.00
2018-12-13T14:38:56.682Z,13.23
2018-12-13T14:42:00.090Z,10.97
2018-12-13T14:45:04.106Z,14.20
2018-12-13T14:48:08.969Z,11.07
2018-12-13T14:51:12.571Z,13.33
2018-12-13T14:54:15.894Z,14.10
2018-12-13T14:57:19.350Z,13.20
2018-12-13T15:00:22.690Z,12.80
2018-12-13T15:03:26.009Z,11.40
2018-12-13T15:06:29.440Z,15.00
2018-12-13T15:09:32.749Z,14.90
2018-12-13T15:12:36.206Z,15.07
2018-12-13T15:18:57.914Z,13.03
2018-12-13T15:22:01.625Z,16.60
2018-12-13T15:25:05.723Z,14.47
2018-12-13T15:28:09.382Z,15.77
2018-12-13T15:31:13.145Z,16.00
2018-12-13T15:34:16.615Z,12.13
2018-12-13T15:37:19.974Z,14.63
2018-12-13T15:40:23.398Z,19.43
2018-12-13T15:43:26.840Z,14.53
2018-12-13T15:46:30.238Z,18.27
2018-12-13T15:49:33.729Z,22.90
2018-12-13T15:52:37.098Z,16.63
2018-12-13T15:55:40.402Z,18.20
2018-12-13T15:58:43.846Z,13.30
2018-12-13T16:01:47.239Z,13.10
2018-12-13T16:04:50.569Z,14.33
2018-12-13T16:07:53.989Z,15.57
2018-12-13T16:10:57.339Z,15.10
2018-12-13T16:14:05.049Z,13.67
2018-12-13T16:17:08.437Z,15.70
2018-12-13T16:20:11.758Z,15.03
2018-12-13T16:23:15.127Z,14.33
2018-12-13T16:26:18.510Z,15.10
2018-12-13T16:29:21.849Z,16.27
2018-12-13T16:32:25.187Z,17.87
2018-12-13T16:35:28.522Z,18.03
2018-12-13T16:38:32.747Z,17.17
2018-12-13T16:41:36.120Z,20.83
2018-12-13T16:47:59.301Z,15.53
2018-12-13T16:51:02.721Z,20.63
2018-12-13T16:54:06.134Z,20.20
2018-12-13T17:00:26.401Z,21.40
2018-12-13T17:03:39.373Z,16.35
2018-12-13T17:06:42.734Z,19.60
2018-12-13T17:09:46.137Z,18.77
2018-12-13T17:12:49.574Z,20.30
2018-12-13T17:15:53.854Z,23.27
2018-12-13T17:18:57.191Z,22.10
2018-12-13T17:22:00.606Z,23.33
2018-12-13T17:25:04.600Z,24.07
2018-12-13T17:28:08.094Z,22.93
2018-12-13T17:31:11.498Z,20.82
2018-12-13T17:34:14.858Z,43.43
2018-12-13T17:37:18.186Z,32.73
2018-12-13T17:40:23.231Z,23.50
2018-12-13T17:43:26.746Z,21.65
2018-12-13T17:46:30.077Z,32.83
2018-12-13T17:49:33.525Z,23.47
2018-12-13T17:52:36.889Z,22.30
2018-12-13T17:55:40.212Z,21.60
2018-12-13T17:58:43.618Z,23.10
2018-12-13T18:01:46.977Z,22.93
2018-12-13T18:04:50.325Z,24.13
2018-12-13T18:07:53.757Z,22.32
2018-12-13T18:10:57.133Z,21.93
2018-12-13T18:14:00.447Z,19.27
2018-12-13T18:17:03.901Z,23.00
2018-12-13T18:20:07.348Z,23.03
2018-12-13T18:23:10.729Z,22.90
2018-12-13T18:26:14.061Z,20.53
2018-12-13T18:29:17.378Z,19.40
2018-12-13T18:32:20.825Z,22.20
2018-12-13T18:35:24.250Z,19.93
2018-12-13T18:38:27.557Z,56.50
2018-12-13T18:41:30.877Z,20.77
2018-12-13T18:44:34.224Z,17.97
2018-12-13T18:47:37.668Z,18.13
2018-12-13T18:50:40.961Z,21.37
2018-12-13T18:53:44.331Z,22.97
2018-12-13T18:56:47.766Z,20.25
2018-12-13T18:59:51.225Z,19.73
2018-12-13T19:02:54.615Z,19.77
2018-12-13T19:05:57.969Z,19.70
2018-12-13T19:09:01.282Z,18.30
2018-12-13T19:12:04.798Z,21.87
2018-12-13T19:15:08.150Z,20.83
2018-12-13T19:18:11.513Z,21.43
2018-12-13T19:21:14.843Z,17.80
2018-12-13T19:24:18.150Z,21.50
2018-12-13T19:27:21.525Z,17.57
2018-12-13T19:30:25.004Z,19.30
2018-12-13T19:33:28.315Z,18.03
2018-12-13T19:36:46.281Z,18.15
2018-12-13T19:39:49.645Z,17.90
2018-12-13T19:42:53.045Z,17.73
2018-12-13T19:45:56.834Z,17.67
2018-12-13T19:49:00.295Z,16.67
2018-12-13T19:52:03.640Z,19.77
2018-12-13T19:55:08.653Z,17.07
2018-12-13T19:58:12.085Z,18.92
2018-12-13T20:01:16.671Z,20.37
2018-12-13T20:04:20.297Z,17.40
2018-12-13T20:07:24.737Z,23.23
2018-12-13T20:10:29.297Z,22.43
2018-12-13T20:13:32.967Z,22.73
2018-12-13T20:16:36.570Z,21.23
2018-12-13T20:19:41.688Z,18.13
2018-12-13T20:22:46.280Z,18.62
2018-12-13T20:25:49.938Z,19.77
2018-12-13T20:28:55.361Z,15.80
2018-12-13T20:31:59.053Z,20.10
2018-12-13T20:35:02.769Z,20.83
2018-12-13T20:38:09.301Z,18.60
2018-12-13T20:41:13.345Z,19.56
2018-12-13T20:44:26.635Z,20.80
2018-12-13T20:47:30.230Z,18.10
2018-12-13T20:50:33.595Z,19.40
2018-12-13T20:53:37.137Z,19.87
2018-12-13T20:56:40.453Z,19.17
2018-12-13T20:59:43.813Z,15.80
2018-12-13T21:02:47.217Z,17.97
2018-12-13T21:05:50.975Z,17.10
2018-12-13T21:08:54.448Z,18.90
2018-12-13T21:11:58.061Z,20.70
2018-12-13T21:15:01.519Z,18.70
2018-12-13T21:18:05.051Z,16.80
2018-12-13T21:21:08.451Z,19.77
2018-12-13T21:24:11.804Z,23.33
2018-12-13T21:27:15.172Z,20.80
2018-12-13T21:30:18.780Z,20.47
2018-12-13T21:33:22.181Z,18.97
2018-12-13T21:36:25.561Z,18.60
2018-12-13T21:39:29.147Z,19.30
2018-12-13T21:42:32.541Z,24.57
2018-12-13T21:45:36.188Z,22.37
2018-12-13T21:48:39.730Z,20.77
2018-12-13T21:51:43.128Z,20.23
2018-12-13T21:54:46.533Z,21.63
2018-12-13T21:57:49.942Z,17.80
2018-12-13T22:00:53.394Z,20.97
2018-12-13T22:03:56.807Z,24.23
2018-12-13T22:07:00.127Z,17.93
2018-12-13T22:10:05.167Z,21.03
2018-12-13T22:13:08.490Z,21.00
2018-12-13T22:16:11.805Z,22.33
2018-12-13T22:19:15.114Z,22.37
2018-12-13T22:22:18.649Z,21.23
2018-12-13T22:25:22.030Z,24.17
2018-12-13T22:28:25.353Z,19.87
2018-12-13T22:31:28.702Z,18.90
2018-12-13T22:34:32.024Z,20.37
2018-12-13T22:37:35.336Z,18.77
2018-12-13T22:40:39.349Z,19.33
2018-12-13T22:43:42.678Z,21.70
2018-12-13T22:46:46.094Z,21.30
2018-12-13T22:49:49.406Z,23.17
2018-12-13T22:52:52.725Z,23.73
2018-12-13T22:55:56.097Z,19.90
2018-12-13T22:58:59.412Z,20.53
2018-12-13T23:02:02.739Z,21.10
2018-12-13T23:05:06.668Z,19.17
2018-12-13T23:08:10.060Z,22.83
2018-12-13T23:11:13.718Z,25.27
2018-12-13T23:14:17.034Z,20.47
2018-12-13T23:17:20.976Z,20.77
2018-12-13T23:20:24.282Z,17.03
2018-12-13T23:23:27.691Z,21.67
2018-12-13T23:26:32.762Z,19.97
2018-12-13T23:29:36.068Z,22.37
2018-12-13T23:32:39.434Z,18.00
2018-12-13T23:35:42.809Z,21.33
2018-12-13T23:38:46.209Z,23.63
2018-12-13T23:41:49.522Z,21.77
2018-12-13T23:44:52.925Z,20.10
2018-12-13T23:47:56.243Z,23.10
2018-12-13T23:50:59.580Z,23.67
2018-12-13T23:54:03.081Z,22.95
2018-12-13T23:57:06.438Z,24.15
